Time;durP1;ratioP1;P1;durP2;ratioP2;P2;SDS_P1;SDS_P2;PMS_P1;PMS_P2;Temp;Humidity;BMP_temperature;BMP_pressure;BME280_temperature;BME280_humidity;BME280_pressure;Samples;Min_cycle;Max_cycle;Signal;HPM_P1;HPM_P2
2022/12/15 00:39:16;;;;;;;95.25;22.70;;;-5.00;99.90;;;;;;5022016;28;20204;-85
2022/12/15 00:41:41;;;;;;;86.13;20.63;;;-5.10;99.90;;;;;;5021902;28;20584;-85
2022/12/15 00:44:07;;;;;;;99.83;22.80;;;-5.10;99.90;;;;;;5021429;28;20186;-85
2022/12/15 01:22:08;;;;;;;97.78;22.27;;;-5.40;99.90;;;;;;5019902;28;20740;-84
2022/12/15 01:24:34;;;;;;;92.23;23.10;;;-5.20;99.90;;;;;;5020273;28;20194;-84
2022/12/15 01:27:00;;;;;;;97.82;24.63;;;-5.20;99.90;;;;;;5020784;28;20167;-85
2022/12/15 01:29:25;;;;;;;92.97;25.40;;;-5.10;99.90;;;;;;5020405;28;20178;-85
2022/12/15 01:31:51;;;;;;;89.67;23.43;;;-5.10;99.90;;;;;;5018985;28;20260;-85
2022/12/15 01:34:18;;;;;;;87.77;22.87;;;-5.10;99.90;;;;;;5018882;28;20193;-85
2022/12/15 01:36:45;;;;;;;95.25;24.17;;;-5.10;99.90;;;;;;5018860;28;20176;-85
2022/12/15 01:39:11;;;;;;;92.30;23.17;;;-5.10;99.90;;;;;;5018981;28;20192;-85
2022/12/15 01:41:37;;;;;;;90.55;24.05;;;-5.10;99.90;;;;;;5018881;28;20565;-85
2022/12/15 01:44:15;;;;;;;97.65;25.40;;;-5.20;99.90;;;;;;5020104;28;20170;-85
2022/12/15 01:46:41;;;;;;;97.90;25.13;;;-5.20;99.90;;;;;;5019830;28;20195;-85
2022/12/15 01:49:28;;;;;;;92.40;22.80;;;-5.20;99.90;;;;;;5019440;28;20170;-85
2022/12/15 01:52:00;;;;;;;89.00;22.35;;;-5.30;99.90;;;;;;5018486;28;20556;-85
2022/12/15 01:54:35;;;;;;;94.15;22.88;;;-5.20;99.90;;;;;;5019879;28;20165;-86
2022/12/15 01:57:10;;;;;;;87.82;21.42;;;-5.30;99.90;;;;;;5020435;28;20177;-85
2022/12/15 01:59:42;;;;;;;92.28;21.90;;;-5.30;99.90;;;;;;5019146;28;20187;-85
2022/12/15 02:02:09;;;;;;;96.60;21.70;;;-5.40;99.90;;;;;;5020131;28;20186;-85
2022/12/15 02:04:36;;;;;;;91.75;21.90;;;-5.40;99.90;;;;;;5020662;28;20269;-85
2022/12/15 02:07:02;;;;;;;89.25;20.98;;;-5.30;99.90;;;;;;5018949;28;20166;-85
2022/12/15 02:09:29;;;;;;;92.47;22.35;;;-5.40;99.90;;;;;;5020631;28;20201;-86
2022/12/15 02:12:12;;;;;;;95.88;23.42;;;-5.50;99.70;;;;;;5020197;28;20185;-85
2022/12/15 02:14:49;;;;;;;92.50;21.05;;;-5.60;99.90;;;;;;5019609;28;20169;-85
2022/12/15 02:17:40;;;;;;;87.88;20.48;;;-5.50;99.90;;;;;;5018677;28;20166;-85
2022/12/15 02:20:18;;;;;;;90.35;21.00;;;-5.50;99.90;;;;;;5019682;28;20185;-85
2022/12/15 02:23:20;;;;;;;95.50;21.48;;;-5.50;99.90;;;;;;5020447;28;20157;-85
2022/12/15 02:26:12;;;;;;;97.50;22.27;;;-5.50;99.90;;;;;;5018427;28;20201;-85
2022/12/15 02:29:08;;;;;;;97.93;21.30;;;-5.60;98.00;;;;;;5019576;28;20580;-85
2022/12/15 02:31:51;;;;;;;87.75;19.10;;;-5.60;99.40;;;;;;5019811;28;20193;-85
2022/12/15 02:34:38;;;;;;;86.70;19.98;;;-5.70;99.10;;;;;;5018660;28;20164;-85
2022/12/15 02:37:26;;;;;;;90.90;20.60;;;-5.70;99.90;;;;;;5019996;28;20185;-85
2022/12/15 02:39:52;;;;;;;94.78;21.60;;;-5.70;99.90;;;;;;5018526;28;20173;-85
2022/12/15 02:42:18;;;;;;;84.10;20.73;;;-5.80;99.40;;;;;;5019873;28;20170;-85
2022/12/15 02:44:56;;;;;;;90.00;20.23;;;-5.80;99.90;;;;;;5019910;28;20189;-85
2022/12/15 02:47:46;;;;;;;96.93;23.55;;;-5.80;99.80;;;;;;5018622;28;20427;-85
2022/12/15 02:50:34;;;;;;;98.18;23.77;;;-5.70;99.90;;;;;;5018821;28;20242;-85
2022/12/15 02:53:14;;;;;;;107.97;25.92;;;-5.70;99.90;;;;;;5019794;28;20162;-85
2022/12/15 02:55:51;;;;;;;91.55;21.35;;;-5.70;99.90;;;;;;5017367;28;20165;-85
2022/12/15 02:58:40;;;;;;;94.47;22.88;;;-5.70;99.90;;;;;;5020120;28;20162;-85
2022/12/15 03:01:32;;;;;;;86.90;20.13;;;-5.60;99.90;;;;;;5008082;28;20682;-86
2022/12/15 03:04:02;;;;;;;93.60;22.98;;;-5.60;99.90;;;;;;5018260;28;20177;-85
2022/12/15 03:06:28;;;;;;;100.70;23.10;;;-5.50;99.90;;;;;;5018292;28;20173;-85
2022/12/15 03:08:53;;;;;;;96.80;23.07;;;-5.50;99.90;;;;;;5019290;28;20165;-85
2022/12/15 03:11:19;;;;;;;99.70;21.50;;;-5.50;99.90;;;;;;5019413;28;20205;-85
2022/12/15 03:13:45;;;;;;;100.10;24.30;;;-5.40;99.90;;;;;;5017286;28;20170;-85
2022/12/15 03:16:11;;;;;;;88.63;22.13;;;-5.40;99.90;;;;;;5017590;28;20228;-85
2022/12/15 03:18:36;;;;;;;88.80;22.73;;;-5.50;99.90;;;;;;5018478;28;20500;-85
2022/12/15 03:21:02;;;;;;;84.93;21.80;;;-5.40;99.90;;;;;;5018076;28;20280;-84
2022/12/15 03:23:28;;;;;;;88.50;21.60;;;-5.50;99.90;;;;;;5019209;28;20202;-84
2022/12/15 03:25:54;;;;;;;91.10;21.30;;;-5.50;99.90;;;;;;5017471;28;20456;-85
2022/12/15 03:28:20;;;;;;;87.80;22.55;;;-5.50;99.90;;;;;;5017536;28;20181;-85
2022/12/15 03:30:47;;;;;;;86.53;22.50;;;-5.50;99.90;;;;;;5018276;28;20185;-85
2022/12/15 03:33:16;;;;;;;87.50;22.38;;;-5.50;99.90;;;;;;5017915;28;20174;-85
2022/12/15 03:35:41;;;;;;;92.15;24.92;;;-5.60;99.90;;;;;;5018298;28;20262;-85
2022/12/15 03:38:07;;;;;;;93.17;25.63;;;-5.60;99.90;;;;;;5018078;28;20660;-85
2022/12/15 03:40:33;;;;;;;99.20;25.97;;;-5.60;99.90;;;;;;5017804;28;20193;-85
2022/12/15 03:42:58;;;;;;;96.93;24.60;;;-5.60;99.90;;;;;;5018693;28;20180;-85
2022/12/15 03:45:26;;;;;;;96.57;23.83;;;-5.60;99.90;;;;;;5017638;28;20185;-85
2022/12/15 03:47:53;;;;;;;99.30;25.10;;;-5.60;99.90;;;;;;5019579;28;20173;-85
2022/12/15 03:50:22;;;;;;;104.80;25.67;;;-5.50;99.90;;;;;;5019413;28;20240;-85
2022/12/15 03:52:56;;;;;;;106.05;28.05;;;-5.50;99.90;;;;;;5019086;28;20186;-85
2022/12/15 03:55:23;;;;;;;97.20;24.27;;;-5.50;99.90;;;;;;5017938;28;20602;-85
2022/12/15 03:57:49;;;;;;;94.80;26.83;;;-5.50;99.90;;;;;;5018897;28;20540;-86
2022/12/15 04:00:15;;;;;;;92.85;25.73;;;-5.50;99.90;;;;;;5017726;28;20218;-85
2022/12/15 04:02:41;;;;;;;91.95;28.20;;;-5.60;99.90;;;;;;5017840;28;20170;-85
2022/12/15 04:05:12;;;;;;;97.85;26.45;;;-5.60;99.90;;;;;;5017292;28;20550;-85
2022/12/15 04:07:38;;;;;;;91.90;27.38;;;-5.60;99.90;;;;;;5018434;28;20253;-85
2022/12/15 04:10:04;;;;;;;94.03;22.27;;;-5.60;99.90;;;;;;5021108;28;20201;-85
2022/12/15 04:12:29;;;;;;;94.60;25.88;;;-5.60;99.90;;;;;;5022112;28;20166;-84
2022/12/15 04:14:55;;;;;;;90.20;24.80;;;-5.60;99.90;;;;;;5020382;28;20537;-85
2022/12/15 04:17:20;;;;;;;95.53;27.70;;;-5.60;99.90;;;;;;5022279;28;20176;-85
2022/12/15 04:22:30;;;;;;;90.78;24.33;;;-5.60;99.90;;;;;;5022238;28;20624;-85
2022/12/15 05:33:36;;;;;;;85.30;20.92;;;-5.70;99.90;;;;;;5017682;28;20238;-89
2022/12/15 05:36:03;;;;;;;94.40;23.17;;;-5.70;99.90;;;;;;5017752;28;20221;-89
2022/12/15 05:38:32;;;;;;;96.15;24.95;;;-5.80;99.90;;;;;;5000887;28;20181;-89
2022/12/15 05:41:00;;;;;;;94.65;24.67;;;-5.70;99.90;;;;;;5001668;28;20194;-89
2022/12/15 05:43:27;;;;;;;85.55;25.58;;;-5.80;99.90;;;;;;5017732;28;20574;-88
2022/12/15 05:45:53;;;;;;;87.38;23.92;;;-5.70;99.90;;;;;;5000444;28;20277;-89
2022/12/15 05:48:19;;;;;;;91.53;23.93;;;-5.70;99.90;;;;;;5017684;28;20216;-89
2022/12/15 05:50:47;;;;;;;92.32;22.50;;;-5.70;99.90;;;;;;4999696;28;20479;-89
2022/12/15 05:53:14;;;;;;;89.32;24.85;;;-5.70;99.90;;;;;;4999653;28;20612;-88
2022/12/15 05:55:39;;;;;;;94.03;29.15;;;-5.70;99.90;;;;;;5017371;28;20188;-89
2022/12/15 05:58:05;;;;;;;90.13;24.57;;;-5.80;99.90;;;;;;5017473;28;20696;-89
2022/12/15 06:00:31;;;;;;;91.83;23.93;;;-5.80;99.90;;;;;;5017684;28;20429;-89
2022/12/15 06:03:01;;;;;;;95.85;24.42;;;-5.80;99.90;;;;;;4999692;28;20186;-88
2022/12/15 06:05:33;;;;;;;96.75;27.10;;;-5.80;99.90;;;;;;5017305;28;20186;-89
2022/12/15 06:08:02;;;;;;;98.65;28.05;;;-5.70;99.90;;;;;;5000331;28;20573;-89
2022/12/15 06:10:33;;;;;;;95.40;28.10;;;-5.70;99.90;;;;;;5000558;28;20597;-89
2022/12/15 06:13:04;;;;;;;87.68;25.38;;;-5.70;99.90;;;;;;5017886;28;20145;-88
2022/12/15 06:15:37;;;;;;;93.75;28.65;;;-5.80;99.90;;;;;;4999967;28;20201;-88
2022/12/15 06:18:03;;;;;;;92.65;25.48;;;-5.80;99.90;;;;;;5017462;28;20190;-88
2022/12/15 06:20:29;;;;;;;89.53;25.92;;;-5.80;99.90;;;;;;5017587;28;20208;-88
2022/12/15 06:22:56;;;;;;;96.00;27.00;;;-5.70;99.90;;;;;;4999272;28;20174;-88
2022/12/15 06:25:22;;;;;;;90.32;24.67;;;-5.70;99.90;;;;;;4999920;28;20448;-88
2022/12/15 06:27:50;;;;;;;96.47;26.30;;;-5.70;99.90;;;;;;5016659;28;20202;-88
2022/12/15 06:30:17;;;;;;;90.85;25.20;;;-5.70;99.90;;;;;;4998775;28;20273;-87
2022/12/15 06:32:46;;;;;;;95.65;25.38;;;-5.60;99.90;;;;;;5016610;28;20169;-88
2022/12/15 06:35:12;;;;;;;91.70;24.55;;;-5.70;99.90;;;;;;5000043;28;20182;-88
2022/12/15 06:37:47;;;;;;;87.38;22.67;;;-5.60;99.90;;;;;;5000012;28;20178;-88
2022/12/15 06:40:15;;;;;;;94.88;24.48;;;-5.50;99.90;;;;;;4999588;28;20223;-88
2022/12/15 06:42:44;;;;;;;89.47;24.77;;;-5.50;99.90;;;;;;5000208;28;20174;-88
2022/12/15 06:45:10;;;;;;;86.95;23.13;;;-5.40;99.90;;;;;;5017223;28;20189;-88
2022/12/15 06:47:38;;;;;;;87.47;25.42;;;-5.40;99.90;;;;;;4999698;28;20178;-88
2022/12/15 06:50:04;;;;;;;98.18;24.85;;;-5.40;99.90;;;;;;5016423;28;20249;-87
2022/12/15 06:52:30;;;;;;;89.75;24.73;;;-5.40;99.90;;;;;;4999273;28;20193;-88
2022/12/15 06:54:56;;;;;;;94.77;28.33;;;-5.40;99.90;;;;;;4999575;28;20172;-87
2022/12/15 06:57:25;;;;;;;91.13;23.13;;;-5.40;99.90;;;;;;5016617;28;20404;-88
2022/12/15 06:59:53;;;;;;;97.82;27.95;;;-5.40;99.90;;;;;;5017125;28;20170;-86
2022/12/15 07:02:19;;;;;;;94.35;24.42;;;-5.40;99.90;;;;;;5000654;28;20208;-88
2022/12/15 07:04:44;;;;;;;95.50;30.20;;;-5.40;99.90;;;;;;5000444;28;20197;-88
2022/12/15 07:07:10;;;;;;;95.77;27.97;;;-5.40;99.90;;;;;;5017825;28;20162;-88
2022/12/15 07:09:36;;;;;;;98.50;28.27;;;-5.30;99.90;;;;;;5017128;28;20401;-88
2022/12/15 07:12:02;;;;;;;93.47;25.60;;;-5.30;99.90;;;;;;4999170;28;20561;-87
2022/12/15 07:14:27;;;;;;;92.10;29.33;;;-5.30;99.90;;;;;;5017475;28;20600;-88
2022/12/15 07:16:53;;;;;;;86.23;26.67;;;-5.20;99.90;;;;;;5017909;28;20409;-87
2022/12/15 07:19:19;;;;;;;90.67;26.10;;;-5.20;99.90;;;;;;4999029;28;20974;-87
2022/12/15 07:21:45;;;;;;;90.67;27.63;;;-5.20;99.90;;;;;;4998952;28;20186;-87
2022/12/15 07:24:11;;;;;;;98.95;29.60;;;-5.20;99.90;;;;;;5016709;28;20492;-87
2022/12/15 07:26:38;;;;;;;94.70;29.48;;;-5.10;99.90;;;;;;4998666;28;20170;-87
2022/12/15 07:29:04;;;;;;;93.53;27.88;;;-5.10;99.90;;;;;;5015920;28;20177;-87
2022/12/15 07:31:30;;;;;;;91.53;29.02;;;-5.00;99.90;;;;;;4998429;28;20278;-88
2022/12/15 07:33:57;;;;;;;89.97;27.95;;;-5.00;99.90;;;;;;5016297;28;20181;-88
2022/12/15 07:36:23;;;;;;;94.90;29.88;;;-5.00;99.90;;;;;;4999028;28;20181;-87
2022/12/15 07:38:52;;;;;;;92.50;29.10;;;-4.90;99.90;;;;;;4998800;28;20236;-87
2022/12/15 07:41:19;;;;;;;97.40;28.63;;;-4.90;99.90;;;;;;5017124;28;20193;-87
2022/12/15 07:43:48;;;;;;;92.38;28.10;;;-4.80;99.90;;;;;;5020887;28;20249;-87
2022/12/15 07:46:14;;;;;;;103.05;30.70;;;-4.80;99.90;;;;;;5002735;28;20194;-87
2022/12/15 07:48:40;;;;;;;97.53;26.67;;;-4.80;99.90;;;;;;5003448;28;20579;-88
2022/12/15 07:51:07;;;;;;;96.32;30.52;;;-4.70;99.90;;;;;;5002604;28;20221;-87
2022/12/15 07:53:33;;;;;;;90.45;27.80;;;-4.70;99.90;;;;;;5020817;28;20158;-87
2022/12/15 07:55:59;;;;;;;88.57;29.70;;;-4.80;99.90;;;;;;5002582;28;20170;-87
2022/12/15 07:58:27;;;;;;;95.25;32.22;;;-4.80;99.90;;;;;;5002374;28;20409;-87
2022/12/15 08:00:58;;;;;;;99.65;30.52;;;-4.70;99.90;;;;;;5020511;28;20196;-87
2022/12/15 08:03:24;;;;;;;95.22;30.00;;;-4.70;99.90;;;;;;5020126;28;20161;-87
2022/12/15 08:05:50;;;;;;;94.30;28.70;;;-4.60;99.90;;;;;;5002035;28;20194;-88
2022/12/15 08:08:17;;;;;;;101.53;32.20;;;-4.70;99.90;;;;;;5019913;28;20467;-88
2022/12/15 08:10:50;;;;;;;97.22;29.75;;;-4.70;99.90;;;;;;5019839;28;20424;-87
2022/12/15 08:13:16;;;;;;;96.75;31.00;;;-4.70;99.90;;;;;;5002728;28;20158;-88
2022/12/15 08:15:42;;;;;;;93.20;31.42;;;-4.70;99.90;;;;;;5002125;28;20177;-87
2022/12/15 08:18:08;;;;;;;98.20;30.77;;;-4.70;99.90;;;;;;5002310;28;20170;-87
2022/12/15 08:20:35;;;;;;;100.90;28.37;;;-4.60;99.90;;;;;;5002215;28;20202;-87
2022/12/15 08:23:04;;;;;;;97.70;30.25;;;-4.60;99.90;;;;;;5020539;28;20765;-88
2022/12/15 08:25:33;;;;;;;96.75;30.00;;;-4.60;99.90;;;;;;5019703;28;20661;-87
2022/12/15 08:28:03;;;;;;;97.78;30.80;;;-4.50;99.90;;;;;;5002151;28;20200;-88
2022/12/15 08:30:34;;;;;;;91.60;29.35;;;-4.60;99.90;;;;;;5002288;28;20201;-88
2022/12/15 08:33:03;;;;;;;101.70;29.77;;;-4.50;99.90;;;;;;5003366;28;20166;-88
2022/12/15 08:35:29;;;;;;;99.07;30.13;;;-4.50;99.90;;;;;;5002405;28;20188;-87
2022/12/15 08:37:54;;;;;;;97.95;31.75;;;-4.50;99.90;;;;;;5020520;28;20527;-87
2022/12/15 08:40:24;;;;;;;97.57;32.67;;;-4.50;99.90;;;;;;5002210;28;20273;-87
2022/12/15 08:42:49;;;;;;;98.10;29.90;;;-4.40;99.90;;;;;;5002615;28;20657;-87
2022/12/15 08:45:23;;;;;;;101.30;33.63;;;-4.30;99.90;;;;;;5019895;28;20186;-87
2022/12/15 08:47:49;;;;;;;97.03;31.98;;;-4.30;99.90;;;;;;5002719;28;20424;-87
2022/12/15 08:50:15;;;;;;;105.03;35.57;;;-4.30;99.90;;;;;;5002171;28;20198;-87
2022/12/15 08:52:41;;;;;;;113.33;34.60;;;-4.30;99.90;;;;;;5002655;28;20495;-87
2022/12/15 08:55:12;;;;;;;120.03;33.50;;;-4.30;99.90;;;;;;5002234;28;20417;-87
2022/12/15 08:57:39;;;;;;;108.07;33.97;;;-4.30;99.90;;;;;;5002145;28;20229;-87
2022/12/15 09:00:08;;;;;;;115.95;35.30;;;-4.20;99.90;;;;;;5001786;28;20581;-87
2022/12/15 09:02:34;;;;;;;109.82;34.97;;;-4.20;99.90;;;;;;5002355;28;20170;-87
2022/12/15 09:05:00;;;;;;;108.80;36.70;;;-4.10;99.90;;;;;;5001510;28;20197;-87
2022/12/15 09:07:26;;;;;;;117.77;39.53;;;-4.10;99.90;;;;;;5000883;28;20410;-87
2022/12/15 09:09:51;;;;;;;120.50;40.13;;;-4.00;99.90;;;;;;5001625;28;20417;-86
2022/12/15 09:12:20;;;;;;;112.70;38.60;;;-4.00;99.90;;;;;;5019335;28;20401;-87
2022/12/15 09:14:45;;;;;;;121.55;38.80;;;-3.90;99.90;;;;;;5001346;28;20470;-87
2022/12/15 09:17:11;;;;;;;126.50;40.47;;;-3.80;99.90;;;;;;5019019;28;20190;-87
2022/12/15 09:19:37;;;;;;;112.97;37.90;;;-3.70;99.90;;;;;;5001361;28;20174;-87
2022/12/15 09:22:06;;;;;;;117.45;38.55;;;-3.70;99.90;;;;;;5019142;28;20649;-87
2022/12/15 09:24:32;;;;;;;116.45;40.85;;;-3.70;99.90;;;;;;5019038;28;20181;-87
2022/12/15 09:26:58;;;;;;;120.37;40.20;;;-3.70;99.90;;;;;;5001690;28;20169;-88
2022/12/15 09:29:23;;;;;;;118.90;41.60;;;-3.70;99.90;;;;;;5018987;28;20416;-87
2022/12/15 09:31:49;;;;;;;132.10;43.77;;;-3.70;99.90;;;;;;5019157;28;20186;-87
2022/12/15 09:34:15;;;;;;;122.90;39.67;;;-3.70;99.90;;;;;;5019075;28;20204;-88
2022/12/15 09:36:42;;;;;;;133.50;44.50;;;-3.70;99.90;;;;;;5002031;28;20170;-87
2022/12/15 09:39:10;;;;;;;118.53;41.78;;;-3.70;99.90;;;;;;5019691;28;20162;-87
2022/12/15 09:41:39;;;;;;;114.68;41.53;;;-3.60;99.90;;;;;;5019655;28;20174;-87
2022/12/15 09:44:17;;;;;;;117.90;40.72;;;-3.50;99.90;;;;;;5002050;28;20161;-88
2022/12/15 09:46:47;;;;;;;123.70;43.33;;;-3.50;99.90;;;;;;5019481;28;20146;-87
2022/12/15 09:49:24;;;;;;;119.45;43.15;;;-3.50;99.90;;;;;;5019548;28;20166;-87
2022/12/15 09:52:05;;;;;;;121.07;38.45;;;-3.40;99.90;;;;;;5001623;28;20193;-87
2022/12/15 09:54:33;;;;;;;120.45;40.92;;;-3.40;99.90;;;;;;5019140;28;20667;-87
2022/12/15 09:57:06;;;;;;;123.75;41.38;;;-3.50;99.90;;;;;;5002442;28;20509;-88
2022/12/15 09:59:38;;;;;;;114.75;39.92;;;-3.50;99.90;;;;;;5001698;28;20162;-88
2022/12/15 10:02:31;;;;;;;122.18;43.50;;;-3.50;99.90;;;;;;5001998;28;20692;-87
2022/12/15 10:05:10;;;;;;;115.88;40.35;;;-3.40;99.90;;;;;;5019552;28;20244;-87
2022/12/15 10:07:45;;;;;;;120.50;39.40;;;-3.40;99.90;;;;;;5002106;28;20177;-87
2022/12/15 10:10:36;;;;;;;121.93;44.75;;;-3.30;99.90;;;;;;5001503;28;20153;-88
2022/12/15 10:13:11;;;;;;;136.88;47.17;;;-3.30;99.90;;;;;;5020171;28;20142;-87
2022/12/15 10:15:59;;;;;;;120.68;42.88;;;-3.20;99.90;;;;;;5002355;28;20162;-87
2022/12/15 10:18:36;;;;;;;127.45;44.30;;;-3.20;99.90;;;;;;5013309;28;20647;-87
2022/12/15 10:21:09;;;;;;;121.30;43.63;;;-3.10;99.90;;;;;;5019424;28;20272;-87
2022/12/15 10:23:36;;;;;;;124.25;45.75;;;-3.00;99.90;;;;;;5019830;28;20645;-87
2022/12/15 10:26:22;;;;;;;125.07;45.65;;;-3.00;99.90;;;;;;5002840;28;20204;-87
2022/12/15 10:29:18;;;;;;;124.50;41.63;;;-2.90;99.90;;;;;;5020733;28;20205;-87
2022/12/15 10:31:50;;;;;;;142.60;45.67;;;-3.00;99.90;;;;;;5019339;28;20188;-87
2022/12/15 10:34:28;;;;;;;128.50;47.20;;;-2.90;99.90;;;;;;5019775;28;20147;-87
2022/12/15 10:36:55;;;;;;;130.18;46.58;;;-3.00;99.90;;;;;;5020287;28;20166;-87
2022/12/15 10:39:23;;;;;;;124.63;46.83;;;-3.00;99.90;;;;;;5003231;28;20223;-87
2022/12/15 10:42:11;;;;;;;145.48;51.67;;;-3.00;99.90;;;;;;5020533;28;20661;-87
2022/12/15 10:44:40;;;;;;;148.18;52.05;;;-3.10;99.90;;;;;;5021213;28;20186;-87
2022/12/15 10:47:32;;;;;;;134.40;49.00;;;-3.00;99.90;;;;;;5003428;28;20257;-87
2022/12/15 10:50:23;;;;;;;143.13;57.70;;;-3.00;99.90;;;;;;5002498;28;20158;-87
2022/12/15 10:52:49;;;;;;;143.52;50.25;;;-2.90;99.90;;;;;;5020622;28;20189;-87
2022/12/15 10:55:40;;;;;;;151.60;56.93;;;-2.90;99.90;;;;;;5021418;28;20162;-87
2022/12/15 10:58:20;;;;;;;142.55;51.00;;;-3.00;99.90;;;;;;5020712;28;20170;-87
2022/12/15 11:00:46;;;;;;;178.88;61.80;;;-3.00;99.90;;;;;;5020257;28;20260;-87
2022/12/15 11:03:25;;;;;;;173.95;68.07;;;-2.90;99.90;;;;;;5021311;28;20174;-87
2022/12/15 11:05:55;;;;;;;161.93;56.72;;;-2.90;99.90;;;;;;5003356;28;20193;-87
2022/12/15 11:08:23;;;;;;;165.75;61.75;;;-2.80;99.90;;;;;;5021159;28;20154;-88
2022/12/15 11:13:39;;;;;;;154.45;57.75;;;-2.80;99.90;;;;;;5020753;28;20173;-87
2022/12/15 11:16:18;;;;;;;146.38;49.83;;;-2.60;99.90;;;;;;5003722;28;20169;-87
2022/12/15 11:18:50;;;;;;;143.57;49.90;;;-2.80;99.90;;;;;;5006940;28;20174;-87
2022/12/15 11:21:23;;;;;;;148.50;49.85;;;-2.90;99.90;;;;;;5025479;28;20249;-87
2022/12/15 11:23:54;;;;;;;136.40;53.17;;;-2.90;99.90;;;;;;5025341;28;20166;-87
2022/12/15 11:26:42;;;;;;;142.95;47.13;;;-2.70;99.90;;;;;;5007858;28;20284;-87
2022/12/15 11:29:55;;;;;;;151.98;51.08;;;-2.60;99.90;;;;;;5122213;23;20214;-87
2022/12/15 11:32:25;;;;;;;145.95;48.38;;;-2.60;99.90;;;;;;4977901;28;20547;-86
2022/12/15 11:35:10;;;;;;;135.38;47.00;;;-2.40;99.90;;;;;;4986215;28;20168;-86
2022/12/15 11:37:51;;;;;;;149.90;52.83;;;-2.50;99.90;;;;;;4986106;28;20611;-86
2022/12/15 11:40:49;;;;;;;136.80;48.67;;;-2.40;99.90;;;;;;4968874;28;20215;-86
2022/12/15 11:43:55;;;;;;;118.40;46.20;;;-2.50;99.90;;;;;;4985752;28;20148;-87
2022/12/15 11:46:41;;;;;;;125.38;48.20;;;-2.50;99.90;;;;;;4985357;28;20191;-86
2022/12/15 11:49:25;;;;;;;131.88;46.60;;;-2.40;99.90;;;;;;4985178;28;20563;-85
2022/12/15 11:52:25;;;;;;;124.10;44.58;;;-2.30;99.90;;;;;;4984568;28;20175;-86
2022/12/15 11:55:02;;;;;;;134.90;47.60;;;-2.30;99.90;;;;;;4984199;28;20525;-85
2022/12/15 11:58:26;;;;;;;125.43;49.72;;;-2.30;99.90;;;;;;4984422;28;20175;-86
2022/12/15 12:01:22;;;;;;;129.10;50.67;;;-2.20;99.90;;;;;;4983148;28;20693;-86
2022/12/15 12:04:44;;;;;;;140.60;49.55;;;-2.10;99.90;;;;;;4983821;28;20581;-86
2022/12/15 12:07:46;;;;;;;132.32;50.05;;;-2.20;99.90;;;;;;4984396;28;20607;-87
2022/12/15 12:11:07;;;;;;;131.63;43.67;;;-2.20;99.90;;;;;;4969455;28;20203;-86
2022/12/15 12:14:20;;;;;;;139.60;50.00;;;-2.30;99.90;;;;;;4943376;29;20180;-86
2022/12/15 12:17:20;;;;;;;128.68;44.97;;;-2.40;99.90;;;;;;4935858;29;20180;-86
2022/12/15 12:20:13;;;;;;;126.95;41.38;;;-2.50;99.90;;;;;;4984916;28;20148;-87
2022/12/15 12:22:56;;;;;;;121.38;42.72;;;-2.50;99.90;;;;;;4984852;28;20217;-86
2022/12/15 12:25:55;;;;;;;126.88;44.83;;;-2.50;99.90;;;;;;4966699;28;20190;-87
2022/12/15 12:28:41;;;;;;;122.85;47.20;;;-2.40;99.90;;;;;;4983778;28;20171;-87
2022/12/15 12:31:44;;;;;;;128.60;44.45;;;-2.30;99.90;;;;;;4984310;28;20195;-86
2022/12/15 12:34:51;;;;;;;127.20;47.03;;;-2.40;99.90;;;;;;4966399;28;20167;-87
2022/12/15 12:38:17;;;;;;;122.47;46.35;;;-2.30;99.90;;;;;;4983992;28;20167;-87
2022/12/15 12:41:12;;;;;;;;;;;;;;;;;;;;;
2022/12/15 12:43:57;;;;;;;113.43;40.97;;;-2.30;99.90;;;;;;4983896;28;20231;-86
2022/12/15 12:46:46;;;;;;;117.00;40.97;;;-2.30;99.90;;;;;;4966806;28;20690;-87
2022/12/15 12:52:59;;;;;;;122.93;48.78;;;-2.30;99.90;;;;;;4983770;28;20201;-87
2022/12/15 12:56:08;;;;;;;;;;;;;;;;;;;;;
2022/12/15 12:58:54;;;;;;;122.10;41.42;;;-2.40;99.90;;;;;;4984555;28;20263;-86
2022/12/15 13:01:49;;;;;;;117.30;44.40;;;-2.30;99.90;;;;;;4966825;28;20187;-86
2022/12/15 13:04:32;;;;;;;124.13;44.60;;;-2.20;99.90;;;;;;4966700;28;20261;-86
2022/12/15 13:07:30;;;;;;;116.97;45.13;;;-2.30;99.90;;;;;;4967098;28;20168;-85
2022/12/15 13:10:21;;;;;;;117.95;40.28;;;-2.30;99.90;;;;;;4983088;28;20170;-86
2022/12/15 13:12:59;;;;;;;109.93;41.30;;;-2.30;99.90;;;;;;4967575;28;20235;-86
2022/12/15 13:16:09;;;;;;;;;;;;;;;;;;;;;
2022/12/15 13:19:03;;;;;;;115.03;40.10;;;-2.30;99.90;;;;;;4984188;28;20608;-86
2022/12/15 13:21:44;;;;;;;116.18;38.90;;;-2.30;99.90;;;;;;4985195;28;20183;-86
2022/12/15 13:24:52;;;;;;;108.22;40.03;;;-2.30;99.90;;;;;;4985013;28;20193;-86
2022/12/15 13:27:42;;;;;;;113.05;39.92;;;-2.20;99.90;;;;;;4984785;28;20179;-87
2022/12/15 13:30:37;;;;;;;110.38;39.03;;;-2.30;99.90;;;;;;4984293;28;20183;-86
2022/12/15 13:33:17;;;;;;;106.13;37.60;;;-2.40;99.90;;;;;;4984961;28;20210;-86
2022/12/15 13:35:53;;;;;;;115.70;41.38;;;-2.40;99.90;;;;;;4985193;28;20191;-86
2022/12/15 13:38:39;;;;;;;116.10;39.08;;;-2.30;99.90;;;;;;4967215;28;20647;-87
2022/12/15 13:41:27;;;;;;;107.60;38.65;;;-2.30;99.90;;;;;;4984407;28;20202;-86
2022/12/15 13:43:57;;;;;;;120.15;45.75;;;-2.20;99.90;;;;;;4984316;28;20793;-86
2022/12/15 13:46:29;;;;;;;114.85;43.67;;;-2.10;99.90;;;;;;4966226;28;20190;-86
2022/12/15 13:49:12;;;;;;;110.10;40.80;;;-2.20;99.90;;;;;;4966388;28;20159;-86
2022/12/15 13:51:45;;;;;;;110.20;44.15;;;-2.00;99.90;;;;;;4984670;28;20210;-86
2022/12/15 13:54:36;;;;;;;133.35;51.30;;;-2.00;99.90;;;;;;4983782;28;20164;-86
2022/12/15 13:57:19;;;;;;;119.25;46.03;;;-2.00;99.90;;;;;;4983739;28;20155;-86
2022/12/15 13:59:50;;;;;;;118.03;48.28;;;-1.90;99.90;;;;;;4984039;28;20174;-85
2022/12/15 14:02:40;;;;;;;116.13;45.42;;;-2.00;99.90;;;;;;4967015;28;20534;-86
2022/12/15 14:05:11;;;;;;;114.93;46.65;;;-2.10;99.90;;;;;;4983910;28;20187;-87
2022/12/15 14:08:21;;;;;;;114.10;48.47;;;-2.10;99.90;;;;;;4966191;28;20176;-86
2022/12/15 14:11:18;;;;;;;111.30;44.67;;;-2.00;99.90;;;;;;4942862;29;20291;-86
2022/12/15 14:13:44;;;;;;;118.65;44.53;;;-2.00;99.90;;;;;;4942909;28;20183;-85
2022/12/15 14:16:16;;;;;;;105.67;42.20;;;-2.00;99.90;;;;;;4966078;28;20174;-86
2022/12/15 14:18:42;;;;;;;115.82;43.85;;;-2.00;99.90;;;;;;4965630;28;20930;-86
2022/12/15 14:21:38;;;;;;;114.07;39.80;;;-1.80;99.90;;;;;;4983127;28;20217;-87
2022/12/15 14:24:25;;;;;;;111.13;45.50;;;-1.90;99.90;;;;;;4961724;28;20186;-86
2022/12/15 14:26:53;;;;;;;109.05;47.92;;;-2.10;99.90;;;;;;4965519;28;20171;-87
2022/12/15 14:29:24;;;;;;;107.93;45.33;;;-2.10;99.90;;;;;;4982473;28;20203;-85
2022/12/15 14:32:00;;;;;;;119.57;49.25;;;-2.10;99.90;;;;;;4984019;28;20183;-86
2022/12/15 14:34:32;;;;;;;113.85;48.10;;;-2.10;99.90;;;;;;4984423;28;20300;-86
2022/12/15 14:37:02;;;;;;;110.05;45.35;;;-2.10;99.90;;;;;;4966456;28;20178;-87
2022/12/15 14:39:47;;;;;;;115.93;45.58;;;-2.20;99.90;;;;;;4966428;28;20388;-86
2022/12/15 14:45:26;;;;;;;109.05;39.72;;;-2.20;99.90;;;;;;4983604;28;20202;-86
2022/12/15 14:48:05;;;;;;;108.00;41.88;;;-2.10;99.90;;;;;;4966540;28;20210;-85
2022/12/15 14:50:32;;;;;;;113.13;41.28;;;-2.20;99.90;;;;;;4983198;28;20187;-86
2022/12/15 14:53:03;;;;;;;111.90;45.53;;;-2.20;99.90;;;;;;4983373;28;20210;-86
2022/12/15 14:55:39;;;;;;;111.13;37.72;;;-2.20;99.90;;;;;;4966943;28;20226;-86
2022/12/15 14:58:38;;;;;;;115.30;44.00;;;-2.20;99.90;;;;;;4966771;28;20169;-86
2022/12/15 15:01:29;;;;;;;102.97;35.25;;;-2.20;99.90;;;;;;4927283;29;20196;-86
2022/12/15 15:04:17;;;;;;;102.55;32.65;;;-2.10;99.90;;;;;;4939732;28;20563;-86
2022/12/15 15:06:43;;;;;;;99.20;29.60;;;-2.20;99.90;;;;;;4984181;28;20693;-86
2022/12/15 15:09:21;;;;;;;110.53;32.38;;;-2.20;99.90;;;;;;4983162;28;20250;-86
2022/12/15 15:11:53;;;;;;;111.60;31.63;;;-2.20;99.90;;;;;;4983437;28;20183;-86
2022/12/15 15:14:27;;;;;;;108.88;30.95;;;-2.20;99.90;;;;;;4965269;28;20226;-86
2022/12/15 15:17:35;;;;;;;126.57;31.73;;;-2.20;99.90;;;;;;4965826;28;20170;-86
2022/12/15 15:20:14;;;;;;;173.93;48.78;;;-2.30;99.90;;;;;;4965466;28;20778;-86
2022/12/15 15:22:47;;;;;;;151.85;40.75;;;-2.30;99.90;;;;;;4983187;28;20194;-86
2022/12/15 15:25:35;;;;;;;163.57;42.55;;;-2.30;99.90;;;;;;4965630;28;20191;-86
2022/12/15 15:28:22;;;;;;;145.93;41.80;;;-2.40;99.90;;;;;;4982827;28;20211;-86
2022/12/15 15:30:49;;;;;;;153.57;45.90;;;-2.40;99.90;;;;;;4964849;28;20199;-86
2022/12/15 15:33:21;;;;;;;144.50;43.08;;;-2.50;99.90;;;;;;4982197;28;20160;-86
2022/12/15 15:36:12;;;;;;;131.52;39.53;;;-2.50;99.90;;;;;;4982641;28;20661;-86
2022/12/15 15:38:42;;;;;;;114.93;31.48;;;-2.50;99.90;;;;;;4965051;28;20179;-86
2022/12/15 15:41:16;;;;;;;111.20;34.97;;;-2.50;99.90;;;;;;4982849;28;20234;-86